sensor_id;sensor_type;location;lat;lon;timestamp;temperature;humidity
78779;DHT22;68121;52.404;5.318;2023-04-24T00:00:22;11.30;73.60
78779;DHT22;68121;52.404;5.318;2023-04-24T00:02:48;11.20;73.70
78779;DHT22;68121;52.404;5.318;2023-04-24T00:05:16;11.20;73.70
78779;DHT22;68121;52.404;5.318;2023-04-24T00:07:44;11.10;73.70
78779;DHT22;68121;52.404;5.318;2023-04-24T00:10:11;11.10;73.80
78779;DHT22;68121;52.404;5.318;2023-04-24T00:12:38;11.10;73.80
78779;DHT22;68121;52.404;5.318;2023-04-24T00:15:04;11.10;73.90
78779;DHT22;68121;52.404;5.318;2023-04-24T00:17:31;11.10;73.90
78779;DHT22;68121;52.404;5.318;2023-04-24T00:19:57;11.10;74.00
78779;DHT22;68121;52.404;5.318;2023-04-24T00:22:27;11.10;74.00
78779;DHT22;68121;52.404;5.318;2023-04-24T00:24:54;11.10;74.00
78779;DHT22;68121;52.404;5.318;2023-04-24T00:27:20;11.10;74.10
78779;DHT22;68121;52.404;5.318;2023-04-24T00:29:46;11.10;74.10
78779;DHT22;68121;52.404;5.318;2023-04-24T00:32:13;11.10;74.10
78779;DHT22;68121;52.404;5.318;2023-04-24T00:34:40;11.10;74.20
78779;DHT22;68121;52.404;5.318;2023-04-24T00:37:06;11.10;74.20
78779;DHT22;68121;52.404;5.318;2023-04-24T00:39:32;11.10;74.20
78779;DHT22;68121;52.404;5.318;2023-04-24T00:41:58;11.10;74.30
78779;DHT22;68121;52.404;5.318;2023-04-24T00:44:24;11.10;74.30
78779;DHT22;68121;52.404;5.318;2023-04-24T00:46:51;11.10;74.30
78779;DHT22;68121;52.404;5.318;2023-04-24T00:49:21;11.20;74.40
78779;DHT22;68121;52.404;5.318;2023-04-24T00:51:48;11.20;74.40
78779;DHT22;68121;52.404;5.318;2023-04-24T00:54:15;11.20;74.40
78779;DHT22;68121;52.404;5.318;2023-04-24T00:56:42;11.20;74.50
78779;DHT22;68121;52.404;5.318;2023-04-24T00:59:08;11.20;74.50
78779;DHT22;68121;52.404;5.318;2023-04-24T01:01:35;11.20;74.60
78779;DHT22;68121;52.404;5.318;2023-04-24T01:04:02;11.20;74.50
78779;DHT22;68121;52.404;5.318;2023-04-24T01:06:29;11.20;74.60
78779;DHT22;68121;52.404;5.318;2023-04-24T01:08:58;11.20;74.60
78779;DHT22;68121;52.404;5.318;2023-04-24T01:11:25;11.20;74.60
78779;DHT22;68121;52.404;5.318;2023-04-24T01:13:51;11.20;74.50
78779;DHT22;68121;52.404;5.318;2023-04-24T01:16:18;11.10;74.50
78779;DHT22;68121;52.404;5.318;2023-04-24T01:18:47;11.10;74.60
78779;DHT22;68121;52.404;5.318;2023-04-24T01:21:14;11.10;74.60
78779;DHT22;68121;52.404;5.318;2023-04-24T01:23:45;11.00;74.70
78779;DHT22;68121;52.404;5.318;2023-04-24T01:26:13;11.00;74.70
78779;DHT22;68121;52.404;5.318;2023-04-24T01:28:39;10.90;74.70
78779;DHT22;68121;52.404;5.318;2023-04-24T01:31:05;10.80;74.80
78779;DHT22;68121;52.404;5.318;2023-04-24T01:33:32;10.70;74.80
78779;DHT22;68121;52.404;5.318;2023-04-24T01:35:58;10.70;74.80
78779;DHT22;68121;52.404;5.318;2023-04-24T01:38:24;10.60;74.90
78779;DHT22;68121;52.404;5.318;2023-04-24T01:40:51;10.60;74.90
78779;DHT22;68121;52.404;5.318;2023-04-24T01:43:17;10.60;75.00
78779;DHT22;68121;52.404;5.318;2023-04-24T01:45:44;10.60;75.00
78779;DHT22;68121;52.404;5.318;2023-04-24T01:48:11;10.60;75.00
78779;DHT22;68121;52.404;5.318;2023-04-24T01:50:38;10.60;75.10
78779;DHT22;68121;52.404;5.318;2023-04-24T01:53:04;10.50;75.10
78779;DHT22;68121;52.404;5.318;2023-04-24T01:55:30;10.50;75.10
78779;DHT22;68121;52.404;5.318;2023-04-24T01:57:57;10.50;75.00
78779;DHT22;68121;52.404;5.318;2023-04-24T02:00:23;10.40;75.00
78779;DHT22;68121;52.404;5.318;2023-04-24T02:02:50;10.40;74.90
78779;DHT22;68121;52.404;5.318;2023-04-24T02:05:16;10.40;74.90
78779;DHT22;68121;52.404;5.318;2023-04-24T02:07:42;10.30;74.90
78779;DHT22;68121;52.404;5.318;2023-04-24T02:10:09;10.30;74.80
78779;DHT22;68121;52.404;5.318;2023-04-24T02:12:35;10.30;74.80
78779;DHT22;68121;52.404;5.318;2023-04-24T02:15:01;10.30;75.00
78779;DHT22;68121;52.404;5.318;2023-04-24T02:17:27;10.30;74.90
78779;DHT22;68121;52.404;5.318;2023-04-24T02:19:53;10.20;75.00
78779;DHT22;68121;52.404;5.318;2023-04-24T02:22:19;10.20;75.00
78779;DHT22;68121;52.404;5.318;2023-04-24T02:24:46;10.20;75.00
78779;DHT22;68121;52.404;5.318;2023-04-24T02:27:12;10.20;74.90
78779;DHT22;68121;52.404;5.318;2023-04-24T02:29:38;10.20;74.90
78779;DHT22;68121;52.404;5.318;2023-04-24T02:32:04;10.10;74.80
78779;DHT22;68121;52.404;5.318;2023-04-24T02:34:30;10.10;74.80
78779;DHT22;68121;52.404;5.318;2023-04-24T02:36:56;10.10;74.70
78779;DHT22;68121;52.404;5.318;2023-04-24T02:39:22;10.00;74.70
78779;DHT22;68121;52.404;5.318;2023-04-24T02:41:48;10.00;74.60
78779;DHT22;68121;52.404;5.318;2023-04-24T02:44:14;10.00;74.60
78779;DHT22;68121;52.404;5.318;2023-04-24T02:46:40;10.00;74.60
78779;DHT22;68121;52.404;5.318;2023-04-24T02:49:07;10.00;74.60
78779;DHT22;68121;52.404;5.318;2023-04-24T02:51:33;9.90;74.60
78779;DHT22;68121;52.404;5.318;2023-04-24T02:53:59;9.90;74.60
78779;DHT22;68121;52.404;5.318;2023-04-24T02:56:25;9.90;74.60
78779;DHT22;68121;52.404;5.318;2023-04-24T02:58:51;9.90;74.50
78779;DHT22;68121;52.404;5.318;2023-04-24T03:01:17;9.80;74.60
78779;DHT22;68121;52.404;5.318;2023-04-24T03:03:43;9.80;74.60
78779;DHT22;68121;52.404;5.318;2023-04-24T03:06:09;9.90;74.60
78779;DHT22;68121;52.404;5.318;2023-04-24T03:08:36;9.80;74.60
78779;DHT22;68121;52.404;5.318;2023-04-24T03:11:02;9.80;74.60
78779;DHT22;68121;52.404;5.318;2023-04-24T03:13:28;9.90;74.60
78779;DHT22;68121;52.404;5.318;2023-04-24T03:15:54;9.80;74.70
78779;DHT22;68121;52.404;5.318;2023-04-24T03:18:20;9.80;74.60
78779;DHT22;68121;52.404;5.318;2023-04-24T03:20:46;9.80;74.60
78779;DHT22;68121;52.404;5.318;2023-04-24T03:23:13;9.80;74.60
78779;DHT22;68121;52.404;5.318;2023-04-24T03:25:39;9.80;74.60
78779;DHT22;68121;52.404;5.318;2023-04-24T03:28:05;9.80;74.60
78779;DHT22;68121;52.404;5.318;2023-04-24T03:30:31;9.80;74.60
78779;DHT22;68121;52.404;5.318;2023-04-24T03:32:57;9.80;74.60
78779;DHT22;68121;52.404;5.318;2023-04-24T03:35:23;9.80;74.60
78779;DHT22;68121;52.404;5.318;2023-04-24T03:37:49;9.80;74.60
78779;DHT22;68121;52.404;5.318;2023-04-24T03:40:15;9.80;74.60
78779;DHT22;68121;52.404;5.318;2023-04-24T03:42:41;9.80;74.60
78779;DHT22;68121;52.404;5.318;2023-04-24T03:45:08;9.80;74.60
78779;DHT22;68121;52.404;5.318;2023-04-24T03:47:34;9.90;74.60
78779;DHT22;68121;52.404;5.318;2023-04-24T03:50:00;9.90;74.60
78779;DHT22;68121;52.404;5.318;2023-04-24T03:52:27;9.90;74.60
78779;DHT22;68121;52.404;5.318;2023-04-24T03:54:53;9.90;74.60
78779;DHT22;68121;52.404;5.318;2023-04-24T03:57:19;9.90;74.60
78779;DHT22;68121;52.404;5.318;2023-04-24T03:59:45;9.90;74.70
78779;DHT22;68121;52.404;5.318;2023-04-24T04:02:11;9.90;74.60
78779;DHT22;68121;52.404;5.318;2023-04-24T04:04:37;9.90;74.60
78779;DHT22;68121;52.404;5.318;2023-04-24T04:07:03;9.90;74.60
78779;DHT22;68121;52.404;5.318;2023-04-24T04:09:29;10.00;74.60
78779;DHT22;68121;52.404;5.318;2023-04-24T04:11:55;9.90;74.60
78779;DHT22;68121;52.404;5.318;2023-04-24T04:14:22;9.90;74.60
78779;DHT22;68121;52.404;5.318;2023-04-24T04:16:48;9.90;74.60
78779;DHT22;68121;52.404;5.318;2023-04-24T04:19:14;9.90;74.60
78779;DHT22;68121;52.404;5.318;2023-04-24T04:21:40;10.00;74.60
78779;DHT22;68121;52.404;5.318;2023-04-24T04:24:06;10.00;74.60
78779;DHT22;68121;52.404;5.318;2023-04-24T04:26:33;10.00;74.50
78779;DHT22;68121;52.404;5.318;2023-04-24T04:28:59;10.00;74.50
78779;DHT22;68121;52.404;5.318;2023-04-24T04:31:29;10.00;74.40
78779;DHT22;68121;52.404;5.318;2023-04-24T04:33:56;9.90;74.40
78779;DHT22;68121;52.404;5.318;2023-04-24T04:36:22;9.90;74.40
78779;DHT22;68121;52.404;5.318;2023-04-24T04:38:49;9.90;74.50
78779;DHT22;68121;52.404;5.318;2023-04-24T04:41:15;9.90;74.50
78779;DHT22;68121;52.404;5.318;2023-04-24T04:43:43;9.80;74.50
78779;DHT22;68121;52.404;5.318;2023-04-24T04:46:09;9.80;74.50
78779;DHT22;68121;52.404;5.318;2023-04-24T04:48:36;9.80;74.50
78779;DHT22;68121;52.404;5.318;2023-04-24T04:51:03;9.80;74.60
78779;DHT22;68121;52.404;5.318;2023-04-24T04:53:29;9.80;74.60
78779;DHT22;68121;52.404;5.318;2023-04-24T04:55:56;9.80;74.70
78779;DHT22;68121;52.404;5.318;2023-04-24T04:58:22;9.80;74.80
78779;DHT22;68121;52.404;5.318;2023-04-24T05:00:48;9.90;74.70
78779;DHT22;68121;52.404;5.318;2023-04-24T05:03:14;9.80;74.60
78779;DHT22;68121;52.404;5.318;2023-04-24T05:05:40;9.80;74.60
78779;DHT22;68121;52.404;5.318;2023-04-24T05:08:09;9.80;74.60
78779;DHT22;68121;52.404;5.318;2023-04-24T05:10:35;9.80;74.70
78779;DHT22;68121;52.404;5.318;2023-04-24T05:13:03;9.80;74.70
78779;DHT22;68121;52.404;5.318;2023-04-24T05:15:30;9.70;74.80
78779;DHT22;68121;52.404;5.318;2023-04-24T05:17:56;9.80;74.80
78779;DHT22;68121;52.404;5.318;2023-04-24T05:20:22;9.70;74.80
78779;DHT22;68121;52.404;5.318;2023-04-24T05:22:48;9.70;74.90
78779;DHT22;68121;52.404;5.318;2023-04-24T05:25:14;9.70;74.90
78779;DHT22;68121;52.404;5.318;2023-04-24T05:27:41;9.70;74.90
78779;DHT22;68121;52.404;5.318;2023-04-24T05:30:07;9.70;75.00
78779;DHT22;68121;52.404;5.318;2023-04-24T05:32:33;9.70;75.00
78779;DHT22;68121;52.404;5.318;2023-04-24T05:35:02;9.60;75.00
78779;DHT22;68121;52.404;5.318;2023-04-24T05:37:28;9.60;75.10
78779;DHT22;68121;52.404;5.318;2023-04-24T05:39:54;9.60;75.10
78779;DHT22;68121;52.404;5.318;2023-04-24T05:42:20;9.60;75.20
78779;DHT22;68121;52.404;5.318;2023-04-24T05:44:46;9.60;75.20
78779;DHT22;68121;52.404;5.318;2023-04-24T05:47:12;9.60;75.20
78779;DHT22;68121;52.404;5.318;2023-04-24T05:49:38;9.60;75.20
78779;DHT22;68121;52.404;5.318;2023-04-24T05:52:04;9.60;75.20
78779;DHT22;68121;52.404;5.318;2023-04-24T05:54:32;9.50;75.20
78779;DHT22;68121;52.404;5.318;2023-04-24T05:56:58;9.50;75.30
78779;DHT22;68121;52.404;5.318;2023-04-24T05:59:24;9.50;75.30
78779;DHT22;68121;52.404;5.318;2023-04-24T06:01:50;9.50;75.40
78779;DHT22;68121;52.404;5.318;2023-04-24T06:04:16;9.60;75.40
78779;DHT22;68121;52.404;5.318;2023-04-24T06:06:42;9.50;75.40
78779;DHT22;68121;52.404;5.318;2023-04-24T06:09:08;9.50;75.40
78779;DHT22;68121;52.404;5.318;2023-04-24T06:11:34;9.50;75.50
78779;DHT22;68121;52.404;5.318;2023-04-24T06:14:00;9.50;75.50
78779;DHT22;68121;52.404;5.318;2023-04-24T06:16:26;9.40;75.50
78779;DHT22;68121;52.404;5.318;2023-04-24T06:18:52;9.40;75.50
78779;DHT22;68121;52.404;5.318;2023-04-24T06:21:18;9.40;75.50
78779;DHT22;68121;52.404;5.318;2023-04-24T06:23:44;9.40;75.50
78779;DHT22;68121;52.404;5.318;2023-04-24T06:26:12;9.30;75.50
78779;DHT22;68121;52.404;5.318;2023-04-24T06:28:38;9.20;75.50
78779;DHT22;68121;52.404;5.318;2023-04-24T06:31:04;9.20;75.40
78779;DHT22;68121;52.404;5.318;2023-04-24T06:33:30;9.20;75.40
78779;DHT22;68121;52.404;5.318;2023-04-24T06:35:56;9.20;75.50
78779;DHT22;68121;52.404;5.318;2023-04-24T06:38:22;9.20;75.50
78779;DHT22;68121;52.404;5.318;2023-04-24T06:40:48;9.20;75.50
78779;DHT22;68121;52.404;5.318;2023-04-24T06:43:14;9.10;75.40
78779;DHT22;68121;52.404;5.318;2023-04-24T06:45:40;9.00;75.50
78779;DHT22;68121;52.404;5.318;2023-04-24T06:48:06;9.00;75.50
78779;DHT22;68121;52.404;5.318;2023-04-24T06:50:32;9.00;75.60
78779;DHT22;68121;52.404;5.318;2023-04-24T06:52:58;9.00;75.60
78779;DHT22;68121;52.404;5.318;2023-04-24T06:55:24;9.00;75.60
78779;DHT22;68121;52.404;5.318;2023-04-24T06:57:50;9.00;75.60
78779;DHT22;68121;52.404;5.318;2023-04-24T07:00:17;9.00;75.60
78779;DHT22;68121;52.404;5.318;2023-04-24T07:02:43;9.00;75.50
78779;DHT22;68121;52.404;5.318;2023-04-24T07:05:09;9.00;75.40
78779;DHT22;68121;52.404;5.318;2023-04-24T07:07:35;9.00;75.50
78779;DHT22;68121;52.404;5.318;2023-04-24T07:10:05;9.00;75.40
78779;DHT22;68121;52.404;5.318;2023-04-24T07:12:31;9.00;75.40
78779;DHT22;68121;52.404;5.318;2023-04-24T07:14:58;9.00;75.30
78779;DHT22;68121;52.404;5.318;2023-04-24T07:17:24;9.00;75.30
78779;DHT22;68121;52.404;5.318;2023-04-24T07:19:50;9.00;75.20
78779;DHT22;68121;52.404;5.318;2023-04-24T07:22:16;9.00;75.20
78779;DHT22;68121;52.404;5.318;2023-04-24T07:24:44;9.00;75.20
78779;DHT22;68121;52.404;5.318;2023-04-24T07:27:10;9.00;75.20
78779;DHT22;68121;52.404;5.318;2023-04-24T07:29:36;9.00;75.20
78779;DHT22;68121;52.404;5.318;2023-04-24T07:32:02;9.00;75.20
78779;DHT22;68121;52.404;5.318;2023-04-24T07:34:28;9.00;75.10
78779;DHT22;68121;52.404;5.318;2023-04-24T07:36:54;9.00;75.10
78779;DHT22;68121;52.404;5.318;2023-04-24T07:39:21;9.00;75.10
78779;DHT22;68121;52.404;5.318;2023-04-24T07:41:47;9.00;75.10
78779;DHT22;68121;52.404;5.318;2023-04-24T07:44:13;9.00;75.10
78779;DHT22;68121;52.404;5.318;2023-04-24T07:46:39;9.00;75.10
78779;DHT22;68121;52.404;5.318;2023-04-24T07:49:05;9.10;75.10
78779;DHT22;68121;52.404;5.318;2023-04-24T07:51:32;9.10;75.10
78779;DHT22;68121;52.404;5.318;2023-04-24T07:54:00;9.20;75.10
78779;DHT22;68121;52.404;5.318;2023-04-24T07:56:26;9.20;75.10
78779;DHT22;68121;52.404;5.318;2023-04-24T07:58:52;9.20;75.00
78779;DHT22;68121;52.404;5.318;2023-04-24T08:01:18;9.20;75.00
78779;DHT22;68121;52.404;5.318;2023-04-24T08:03:44;9.20;74.90
78779;DHT22;68121;52.404;5.318;2023-04-24T08:06:11;9.20;74.90
78779;DHT22;68121;52.404;5.318;2023-04-24T08:08:37;9.20;74.80
78779;DHT22;68121;52.404;5.318;2023-04-24T08:11:03;9.20;74.80
78779;DHT22;68121;52.404;5.318;2023-04-24T08:13:29;9.20;74.80
78779;DHT22;68121;52.404;5.318;2023-04-24T08:15:56;9.20;74.90
78779;DHT22;68121;52.404;5.318;2023-04-24T08:18:22;9.20;75.00
78779;DHT22;68121;52.404;5.318;2023-04-24T08:20:48;9.20;75.00
78779;DHT22;68121;52.404;5.318;2023-04-24T08:23:15;9.10;75.00
78779;DHT22;68121;52.404;5.318;2023-04-24T08:25:41;9.00;75.10
78779;DHT22;68121;52.404;5.318;2023-04-24T08:28:08;9.00;75.20
78779;DHT22;68121;52.404;5.318;2023-04-24T08:30:35;9.00;75.30
78779;DHT22;68121;52.404;5.318;2023-04-24T08:33:01;9.00;75.40
78779;DHT22;68121;52.404;5.318;2023-04-24T08:35:28;9.00;75.40
78779;DHT22;68121;52.404;5.318;2023-04-24T08:37:54;9.00;75.30
78779;DHT22;68121;52.404;5.318;2023-04-24T08:40:27;9.00;75.30
78779;DHT22;68121;52.404;5.318;2023-04-24T08:42:55;9.00;75.30
78779;DHT22;68121;52.404;5.318;2023-04-24T08:45:23;9.00;75.30
78779;DHT22;68121;52.404;5.318;2023-04-24T08:47:50;9.00;75.30
78779;DHT22;68121;52.404;5.318;2023-04-24T08:50:17;9.00;75.20
78779;DHT22;68121;52.404;5.318;2023-04-24T08:52:43;9.00;75.20
78779;DHT22;68121;52.404;5.318;2023-04-24T08:55:10;9.00;75.10
78779;DHT22;68121;52.404;5.318;2023-04-24T08:57:36;9.10;75.10
78779;DHT22;68121;52.404;5.318;2023-04-24T09:00:06;9.20;75.00
78779;DHT22;68121;52.404;5.318;2023-04-24T09:02:32;9.20;74.90
78779;DHT22;68121;52.404;5.318;2023-04-24T09:05:00;9.20;74.80
78779;DHT22;68121;52.404;5.318;2023-04-24T09:07:27;9.20;74.80
78779;DHT22;68121;52.404;5.318;2023-04-24T09:09:55;9.20;74.60
78779;DHT22;68121;52.404;5.318;2023-04-24T09:12:21;9.20;74.40
78779;DHT22;68121;52.404;5.318;2023-04-24T09:14:48;9.30;74.30
78779;DHT22;68121;52.404;5.318;2023-04-24T09:17:14;9.30;74.20
78779;DHT22;68121;52.404;5.318;2023-04-24T09:19:41;9.30;74.10
78779;DHT22;68121;52.404;5.318;2023-04-24T09:22:07;9.40;73.90
78779;DHT22;68121;52.404;5.318;2023-04-24T09:24:34;9.40;73.80
78779;DHT22;68121;52.404;5.318;2023-04-24T09:27:01;9.40;73.60
78779;DHT22;68121;52.404;5.318;2023-04-24T09:29:27;9.50;73.50
78779;DHT22;68121;52.404;5.318;2023-04-24T09:31:54;9.50;73.30
78779;DHT22;68121;52.404;5.318;2023-04-24T09:34:24;9.50;73.00
78779;DHT22;68121;52.404;5.318;2023-04-24T09:36:51;9.50;72.90
78779;DHT22;68121;52.404;5.318;2023-04-24T09:39:18;9.60;72.90
78779;DHT22;68121;52.404;5.318;2023-04-24T09:41:54;9.60;72.50
78779;DHT22;68121;52.404;5.318;2023-04-24T09:44:25;9.50;72.20
78779;DHT22;68121;52.404;5.318;2023-04-24T09:46:57;9.50;72.10
78779;DHT22;68121;52.404;5.318;2023-04-24T09:49:30;9.40;72.00
78779;DHT22;68121;52.404;5.318;2023-04-24T09:52:06;9.40;72.00
78779;DHT22;68121;52.404;5.318;2023-04-24T09:54:32;9.40;72.00
78779;DHT22;68121;52.404;5.318;2023-04-24T09:56:59;9.40;71.80
78779;DHT22;68121;52.404;5.318;2023-04-24T09:59:26;9.40;71.70
78779;DHT22;68121;52.404;5.318;2023-04-24T10:01:52;9.40;71.50
78779;DHT22;68121;52.404;5.318;2023-04-24T10:04:22;9.40;71.60
78779;DHT22;68121;52.404;5.318;2023-04-24T10:06:51;9.40;71.40
78779;DHT22;68121;52.404;5.318;2023-04-24T10:09:19;9.50;71.30
78779;DHT22;68121;52.404;5.318;2023-04-24T10:11:48;9.50;71.10
78779;DHT22;68121;52.404;5.318;2023-04-24T10:14:16;9.60;71.10
78779;DHT22;68121;52.404;5.318;2023-04-24T10:16:43;9.60;71.00
78779;DHT22;68121;52.404;5.318;2023-04-24T10:19:10;9.60;71.10
78779;DHT22;68121;52.404;5.318;2023-04-24T10:21:37;9.70;71.10
78779;DHT22;68121;52.404;5.318;2023-04-24T10:24:08;9.80;70.90
78779;DHT22;68121;52.404;5.318;2023-04-24T10:26:35;9.80;70.60
78779;DHT22;68121;52.404;5.318;2023-04-24T10:29:01;10.00;70.40
78779;DHT22;68121;52.404;5.318;2023-04-24T10:31:31;10.00;70.00
78779;DHT22;68121;52.404;5.318;2023-04-24T10:33:58;10.00;69.80
78779;DHT22;68121;52.404;5.318;2023-04-24T10:36:27;10.00;69.70
78779;DHT22;68121;52.404;5.318;2023-04-24T10:38:55;10.00;69.60
78779;DHT22;68121;52.404;5.318;2023-04-24T10:41:25;9.80;69.60
78779;DHT22;68121;52.404;5.318;2023-04-24T10:44:24;9.70;69.80
78779;DHT22;68121;52.404;5.318;2023-04-24T10:46:53;9.60;69.90
78779;DHT22;68121;52.404;5.318;2023-04-24T10:49:31;9.50;70.10
78779;DHT22;68121;52.404;5.318;2023-04-24T10:52:02;9.60;70.00
78779;DHT22;68121;52.404;5.318;2023-04-24T10:54:45;9.80;69.90
78779;DHT22;68121;52.404;5.318;2023-04-24T10:59:44;10.30;69.30
78779;DHT22;68121;52.404;5.318;2023-04-24T11:02:10;10.70;68.90
78779;DHT22;68121;52.404;5.318;2023-04-24T11:04:36;11.10;68.60
78779;DHT22;68121;52.404;5.318;2023-04-24T11:07:03;11.40;68.00
78779;DHT22;68121;52.404;5.318;2023-04-24T11:09:31;11.50;67.40
78779;DHT22;68121;52.404;5.318;2023-04-24T11:12:07;11.50;67.20
78779;DHT22;68121;52.404;5.318;2023-04-24T11:17:38;11.10;67.40
78779;DHT22;68121;52.404;5.318;2023-04-24T11:20:15;10.90;67.70
78779;DHT22;68121;52.404;5.318;2023-04-24T11:22:42;10.70;68.00
78779;DHT22;68121;52.404;5.318;2023-04-24T11:25:09;10.60;68.30
78779;DHT22;68121;52.404;5.318;2023-04-24T11:27:44;10.50;68.00
78779;DHT22;68121;52.404;5.318;2023-04-24T11:30:12;10.50;67.70
78779;DHT22;68121;52.404;5.318;2023-04-24T11:32:43;10.60;67.30
78779;DHT22;68121;52.404;5.318;2023-04-24T11:35:18;10.70;67.10
78779;DHT22;68121;52.404;5.318;2023-04-24T11:37:46;10.90;66.60
78779;DHT22;68121;52.404;5.318;2023-04-24T11:40:13;11.00;66.20
78779;DHT22;68121;52.404;5.318;2023-04-24T11:42:44;11.10;65.90
78779;DHT22;68121;52.404;5.318;2023-04-24T11:45:27;11.10;65.50
78779;DHT22;68121;52.404;5.318;2023-04-24T11:47:54;11.10;65.20
78779;DHT22;68121;52.404;5.318;2023-04-24T11:50:22;11.10;65.30
78779;DHT22;68121;52.404;5.318;2023-04-24T11:52:50;11.00;65.70
78779;DHT22;68121;52.404;5.318;2023-04-24T11:57:45;10.60;66.90
78779;DHT22;68121;52.404;5.318;2023-04-24T12:00:23;10.50;67.20
78779;DHT22;68121;52.404;5.318;2023-04-24T12:02:49;10.50;67.50
78779;DHT22;68121;52.404;5.318;2023-04-24T12:05:28;10.60;67.70
78779;DHT22;68121;52.404;5.318;2023-04-24T12:07:56;10.80;67.50
78779;DHT22;68121;52.404;5.318;2023-04-24T12:10:24;10.90;67.00
78779;DHT22;68121;52.404;5.318;2023-04-24T12:12:51;11.10;66.70
78779;DHT22;68121;52.404;5.318;2023-04-24T12:15:19;11.10;66.20
78779;DHT22;68121;52.404;5.318;2023-04-24T12:17:46;11.10;65.60
78779;DHT22;68121;52.404;5.318;2023-04-24T12:20:13;11.10;65.50
78779;DHT22;68121;52.404;5.318;2023-04-24T12:22:54;10.90;65.90
78779;DHT22;68121;52.404;5.318;2023-04-24T12:25:22;10.60;66.50
78779;DHT22;68121;52.404;5.318;2023-04-24T12:28:10;10.50;66.80
78779;DHT22;68121;52.404;5.318;2023-04-24T12:30:42;10.40;67.50
78779;DHT22;68121;52.404;5.318;2023-04-24T12:33:10;10.40;67.70
78779;DHT22;68121;52.404;5.318;2023-04-24T12:35:36;10.50;67.70
78779;DHT22;68121;52.404;5.318;2023-04-24T12:38:06;10.70;67.70
78779;DHT22;68121;52.404;5.318;2023-04-24T12:40:33;10.80;67.50
78779;DHT22;68121;52.404;5.318;2023-04-24T12:43:00;10.90;67.30
78779;DHT22;68121;52.404;5.318;2023-04-24T12:45:26;11.00;67.00
78779;DHT22;68121;52.404;5.318;2023-04-24T12:47:53;11.10;66.80
78779;DHT22;68121;52.404;5.318;2023-04-24T12:50:19;11.10;66.70
78779;DHT22;68121;52.404;5.318;2023-04-24T12:52:45;11.10;66.50
78779;DHT22;68121;52.404;5.318;2023-04-24T12:55:12;11.00;66.30
78779;DHT22;68121;52.404;5.318;2023-04-24T12:57:39;10.90;66.20
78779;DHT22;68121;52.404;5.318;2023-04-24T13:00:07;10.80;66.40
78779;DHT22;68121;52.404;5.318;2023-04-24T13:02:34;10.70;66.50
78779;DHT22;68121;52.404;5.318;2023-04-24T13:05:00;10.60;66.60
78779;DHT22;68121;52.404;5.318;2023-04-24T13:07:27;10.50;66.70
78779;DHT22;68121;52.404;5.318;2023-04-24T13:09:55;10.40;66.80
78779;DHT22;68121;52.404;5.318;2023-04-24T13:12:21;10.30;66.80
78779;DHT22;68121;52.404;5.318;2023-04-24T13:14:49;10.30;66.90
78779;DHT22;68121;52.404;5.318;2023-04-24T13:17:16;10.20;67.00
78779;DHT22;68121;52.404;5.318;2023-04-24T13:19:43;10.10;66.90
78779;DHT22;68121;52.404;5.318;2023-04-24T13:22:11;10.20;66.90
78779;DHT22;68121;52.404;5.318;2023-04-24T13:24:38;10.20;66.60
78779;DHT22;68121;52.404;5.318;2023-04-24T13:27:05;10.20;66.40
78779;DHT22;68121;52.404;5.318;2023-04-24T13:29:31;10.30;66.20
78779;DHT22;68121;52.404;5.318;2023-04-24T13:31:57;10.30;66.20
78779;DHT22;68121;52.404;5.318;2023-04-24T13:34:24;10.30;66.20
78779;DHT22;68121;52.404;5.318;2023-04-24T13:36:55;10.30;66.00
78779;DHT22;68121;52.404;5.318;2023-04-24T13:39:22;10.30;65.90
78779;DHT22;68121;52.404;5.318;2023-04-24T13:41:49;10.30;65.80
78779;DHT22;68121;52.404;5.318;2023-04-24T13:44:16;10.30;65.90
78779;DHT22;68121;52.404;5.318;2023-04-24T13:46:44;10.30;65.90
78779;DHT22;68121;52.404;5.318;2023-04-24T13:49:12;10.40;65.90
78779;DHT22;68121;52.404;5.318;2023-04-24T13:51:38;10.40;65.90
78779;DHT22;68121;52.404;5.318;2023-04-24T13:54:04;10.50;65.80
78779;DHT22;68121;52.404;5.318;2023-04-24T13:56:30;10.50;65.80
78779;DHT22;68121;52.404;5.318;2023-04-24T13:58:56;10.60;65.80
78779;DHT22;68121;52.404;5.318;2023-04-24T14:01:22;10.70;65.60
78779;DHT22;68121;52.404;5.318;2023-04-24T14:03:52;10.80;65.20
78779;DHT22;68121;52.404;5.318;2023-04-24T14:06:19;11.00;65.00
78779;DHT22;68121;52.404;5.318;2023-04-24T14:08:46;11.10;64.60
78779;DHT22;68121;52.404;5.318;2023-04-24T14:11:12;11.30;64.30
78779;DHT22;68121;52.404;5.318;2023-04-24T14:13:38;11.40;63.90
78779;DHT22;68121;52.404;5.318;2023-04-24T14:16:06;11.40;63.70
78779;DHT22;68121;52.404;5.318;2023-04-24T14:18:32;11.40;63.60
78779;DHT22;68121;52.404;5.318;2023-04-24T14:20:58;11.30;63.50
78779;DHT22;68121;52.404;5.318;2023-04-24T14:23:25;11.30;63.50
78779;DHT22;68121;52.404;5.318;2023-04-24T14:25:51;11.30;63.60
78779;DHT22;68121;52.404;5.318;2023-04-24T14:28:21;11.30;63.60
78779;DHT22;68121;52.404;5.318;2023-04-24T14:30:48;11.40;63.50
78779;DHT22;68121;52.404;5.318;2023-04-24T14:33:14;11.50;63.50
78779;DHT22;68121;52.404;5.318;2023-04-24T14:35:41;11.50;63.20
78779;DHT22;68121;52.404;5.318;2023-04-24T14:38:10;11.50;63.10
78779;DHT22;68121;52.404;5.318;2023-04-24T14:40:37;11.50;62.70
78779;DHT22;68121;52.404;5.318;2023-04-24T14:43:03;11.50;62.70
78779;DHT22;68121;52.404;5.318;2023-04-24T14:45:29;11.40;62.70
78779;DHT22;68121;52.404;5.318;2023-04-24T14:47:55;11.50;62.60
78779;DHT22;68121;52.404;5.318;2023-04-24T14:50:22;11.50;62.60
78779;DHT22;68121;52.404;5.318;2023-04-24T14:52:48;11.50;62.50
78779;DHT22;68121;52.404;5.318;2023-04-24T14:55:14;11.50;62.30
78779;DHT22;68121;52.404;5.318;2023-04-24T14:57:40;11.50;62.00
78779;DHT22;68121;52.404;5.318;2023-04-24T15:00:07;11.50;61.80
78779;DHT22;68121;52.404;5.318;2023-04-24T15:02:36;11.40;61.70
78779;DHT22;68121;52.404;5.318;2023-04-24T15:05:06;11.40;61.60
78779;DHT22;68121;52.404;5.318;2023-04-24T15:07:33;11.40;61.60
78779;DHT22;68121;52.404;5.318;2023-04-24T15:09:59;11.40;61.70
78779;DHT22;68121;52.404;5.318;2023-04-24T15:12:25;11.40;61.70
78779;DHT22;68121;52.404;5.318;2023-04-24T15:14:51;11.40;61.70
78779;DHT22;68121;52.404;5.318;2023-04-24T15:17:17;11.40;61.60
78779;DHT22;68121;52.404;5.318;2023-04-24T15:19:43;11.40;61.50
78779;DHT22;68121;52.404;5.318;2023-04-24T15:22:10;11.30;61.40
78779;DHT22;68121;52.404;5.318;2023-04-24T15:24:36;11.30;61.50
78779;DHT22;68121;52.404;5.318;2023-04-24T15:27:02;11.30;61.50
78779;DHT22;68121;52.404;5.318;2023-04-24T15:29:29;11.30;61.50
78779;DHT22;68121;52.404;5.318;2023-04-24T15:31:55;11.30;61.40
78779;DHT22;68121;52.404;5.318;2023-04-24T15:34:21;11.20;61.20
78779;DHT22;68121;52.404;5.318;2023-04-24T15:36:47;11.10;61.40
78779;DHT22;68121;52.404;5.318;2023-04-24T15:39:13;11.10;61.50
78779;DHT22;68121;52.404;5.318;2023-04-24T15:41:39;11.10;61.50
78779;DHT22;68121;52.404;5.318;2023-04-24T15:44:05;11.10;61.40